Route Details

Aircraft Information
Group: North America Fleet
Types: B738, B752, B762, B763
Route Data
Distance: 794nm
Duration: 2h 29m
Origin METAR: KIAH 010453Z 35007KT 10SM OVC007 03/02 A3029 RMK AO2 SLP258 T00330022
Dest. METAR: KRFD 010454Z 19004KT 10SM CLR M18/M22 A3037 RMK AO2 SLP303 T11831222
Freight Data
(for Feb 1, 2023)
Load Factor:
61%
Manifested Cargo: 42,125lbs
Financial History
Total Freight: 117,203lbs
Average Load: 0lbs/flt
Fuel Used: 32,669lbs
Avg. Fuel Used: 0lbs/flt
Fuel Expense: $16,829
Avg. Fuel Expense: $0
Avg. Fuel Cost: $0/lbs
Total Gross Income: $298,868
Pilot Pay: $498
Total Expenses: $41,307
Total Revenue: $239,274
Average Revenue: $0

Capitol Logistics 460




KIAH
George Bush Intcntl/Houston Airport
Houston, Texas
KRFD
Chicago/Rockford International Airport
Rockford, Illinois

Activity Log

Date Flight Route Aircraft Duration
12/30/2022 CPX460 STYCK8 WTSON DCT BYP DCT MLC DCT EOS DCT MZV DCT PLL DCT RFD DCT B762 2h 10m
06/27/2022 CPX2337 INDIE8 TPAKK DCT LIT J180 FTZ DCT BDF DCT PLL DCT B763 2h 12m